createdAt,value
2022-08-07T00:00:31.352Z,44.75
2022-08-07T00:02:59.473Z,46.50
2022-08-07T00:05:29.636Z,48.25
2022-08-07T00:07:58.194Z,48.00
2022-08-07T00:10:31.034Z,46.40
2022-08-07T00:13:02.184Z,46.00
2022-08-07T00:15:37.644Z,40.40
2022-08-07T00:18:19.889Z,47.00
2022-08-07T00:20:53.970Z,44.25
2022-08-07T00:23:22.280Z,47.50
2022-08-07T00:25:52.553Z,46.25
2022-08-07T00:28:33.254Z,46.25
2022-08-07T00:31:05.938Z,44.75
2022-08-07T00:33:35.091Z,48.20
2022-08-07T00:36:05.400Z,47.80
2022-08-07T00:38:34.259Z,47.00
2022-08-07T00:41:02.366Z,52.40
2022-08-07T00:44:00.920Z,49.80
2022-08-07T00:46:18.466Z,48.80
2022-08-07T00:48:49.899Z,49.80
2022-08-07T00:51:21.415Z,45.60
2022-08-07T00:53:55.339Z,49.80
2022-08-07T00:56:30.375Z,52.40
2022-08-07T00:59:02.188Z,47.50
2022-08-07T01:01:41.251Z,42.75
2022-08-07T01:04:12.489Z,51.20
2022-08-07T01:06:56.208Z,48.80
2022-08-07T01:10:04.845Z,49.40
2022-08-07T01:12:29.839Z,53.00
2022-08-07T01:15:00.970Z,48.40
2022-08-07T01:17:31.311Z,50.00
2022-08-07T01:20:02.962Z,51.20
2022-08-07T01:22:34.111Z,50.00
2022-08-07T01:25:39.940Z,48.40
2022-08-07T01:27:52.614Z,49.40
2022-08-07T01:30:27.125Z,46.80
2022-08-07T01:32:58.292Z,47.40
2022-08-07T01:35:52.739Z,46.00
2022-08-07T01:38:24.622Z,46.00
2022-08-07T01:40:56.041Z,50.50
2022-08-07T01:43:25.838Z,51.80
2022-08-07T01:45:54.911Z,48.60
2022-08-07T01:48:30.182Z,46.75
2022-08-07T01:51:24.258Z,50.50
2022-08-07T01:54:09.642Z,50.25
2022-08-07T01:56:49.206Z,51.40
2022-08-07T01:59:23.148Z,48.80
2022-08-07T02:02:01.966Z,48.50
2022-08-07T02:04:37.941Z,51.20
2022-08-07T02:07:13.545Z,48.40
2022-08-07T02:09:58.506Z,48.00
2022-08-07T02:12:31.152Z,49.75
2022-08-07T02:15:06.009Z,44.25
2022-08-07T02:17:41.567Z,44.20
2022-08-07T02:20:23.542Z,47.40
2022-08-07T02:22:57.621Z,48.40
2022-08-07T02:25:47.219Z,45.00
2022-08-07T02:28:24.379Z,38.00
2022-08-07T02:30:55.432Z,45.00
2022-08-07T02:33:24.363Z,37.25
2022-08-07T02:36:29.576Z,38.25
2022-08-07T02:38:56.996Z,37.00
2022-08-07T02:41:33.456Z,37.75
2022-08-07T02:44:06.406Z,41.50
2022-08-07T02:46:36.771Z,38.75
2022-08-07T02:49:06.768Z,43.50
2022-08-07T02:51:49.768Z,35.75
2022-08-07T02:54:19.245Z,41.25
2022-08-07T02:56:50.027Z,36.25
2022-08-07T02:59:23.957Z,43.00
2022-08-07T03:01:58.119Z,38.75
2022-08-07T03:04:31.572Z,33.00
2022-08-07T03:07:07.075Z,33.25
2022-08-07T03:09:42.280Z,40.50
2022-08-07T03:12:14.244Z,38.75
2022-08-07T03:14:53.102Z,46.75
2022-08-07T03:17:22.260Z,38.25
2022-08-07T03:19:52.938Z,37.00
2022-08-07T03:22:29.625Z,40.50
2022-08-07T03:25:00.200Z,38.25
2022-08-07T03:27:59.731Z,41.75
2022-08-07T03:30:24.442Z,39.33
2022-08-07T03:32:58.310Z,30.75
2022-08-07T03:35:43.960Z,35.00
2022-08-07T03:38:21.416Z,32.75
2022-08-07T03:41:01.529Z,35.00
2022-08-07T03:43:36.064Z,29.25
2022-08-07T03:46:10.412Z,35.50
2022-08-07T03:49:02.636Z,30.50
2022-08-07T03:51:47.092Z,31.00
2022-08-07T03:54:36.538Z,33.00
2022-08-07T03:57:08.539Z,34.00
2022-08-07T03:59:46.723Z,29.00
2022-08-07T04:02:29.322Z,28.50
2022-08-07T04:04:58.485Z,29.00
2022-08-07T04:07:36.225Z,30.75
2022-08-07T04:10:19.651Z,30.25
2022-08-07T04:12:50.433Z,31.50
2022-08-07T04:15:20.497Z,29.50
2022-08-07T04:18:31.075Z,29.00
2022-08-07T04:20:43.094Z,29.75
2022-08-07T04:23:22.941Z,27.25
2022-08-07T04:26:11.318Z,29.50
2022-08-07T04:28:41.445Z,31.25
2022-08-07T04:31:19.730Z,29.25
2022-08-07T04:33:56.502Z,20.50
2022-08-07T04:36:26.496Z,24.75
2022-08-07T04:38:56.376Z,27.25
2022-08-07T04:41:26.894Z,26.00
2022-08-07T04:44:11.836Z,25.75
2022-08-07T04:47:04.174Z,25.25
2022-08-07T04:49:57.589Z,29.50
2022-08-07T04:52:32.342Z,23.00
2022-08-07T04:55:15.203Z,26.00
2022-08-07T04:58:14.586Z,18.50
2022-08-07T05:00:49.079Z,23.50
2022-08-07T05:04:00.501Z,23.75
2022-08-07T05:06:16.360Z,23.25
2022-08-07T05:09:00.624Z,24.50
2022-08-07T05:11:57.716Z,23.00
2022-08-07T05:14:52.508Z,22.75
2022-08-07T05:17:17.513Z,24.00
2022-08-07T05:20:09.644Z,22.75
2022-08-07T05:22:39.602Z,24.25
2022-08-07T05:25:11.699Z,20.25
2022-08-07T05:28:16.768Z,22.75
2022-08-07T05:30:43.744Z,21.25
2022-08-07T05:33:18.087Z,25.00
2022-08-07T05:35:51.618Z,23.50
2022-08-07T05:39:00.142Z,23.50
2022-08-07T05:41:14.523Z,20.00
2022-08-07T05:44:01.226Z,21.00
2022-08-07T05:46:36.115Z,22.75
2022-08-07T05:49:11.954Z,21.50
2022-08-07T05:51:46.439Z,21.25
2022-08-07T05:54:30.349Z,22.00
2022-08-07T05:57:09.483Z,20.50
2022-08-07T05:59:57.231Z,23.25
2022-08-07T06:02:30.784Z,21.00
2022-08-07T06:05:06.001Z,22.50
2022-08-07T06:08:13.834Z,23.00
2022-08-07T06:10:26.885Z,20.00
2022-08-07T06:12:55.139Z,21.25
2022-08-07T06:15:39.149Z,21.75
2022-08-07T06:18:13.893Z,22.75
2022-08-07T06:20:49.599Z,22.50
2022-08-07T06:23:46.338Z,23.75
2022-08-07T06:26:13.080Z,22.50
2022-08-07T06:28:52.974Z,15.75
2022-08-07T06:31:24.274Z,17.75
2022-08-07T06:34:11.231Z,22.25
2022-08-07T06:36:41.900Z,19.75
2022-08-07T06:40:15.575Z,20.25
2022-08-07T06:42:06.324Z,20.00
2022-08-07T06:44:58.100Z,18.75
2022-08-07T06:47:26.972Z,20.00
2022-08-07T06:49:58.495Z,19.00
2022-08-07T06:52:35.683Z,17.75
2022-08-07T06:55:31.567Z,19.00
2022-08-07T06:58:01.857Z,19.50
2022-08-07T07:00:38.193Z,20.00
2022-08-07T07:03:13.581Z,22.00
2022-08-07T07:06:05.103Z,20.50
2022-08-07T07:08:33.284Z,20.50
2022-08-07T07:11:13.536Z,21.00
2022-08-07T07:13:58.264Z,11.00
2022-08-07T07:16:32.080Z,16.25
2022-08-07T07:19:41.024Z,17.50
2022-08-07T07:22:05.014Z,24.00
2022-08-07T07:24:58.489Z,17.75
2022-08-07T07:27:35.675Z,21.25
2022-08-07T07:30:32.477Z,19.00
2022-08-07T07:33:07.682Z,19.75
2022-08-07T07:35:43.941Z,17.50
2022-08-07T07:38:26.286Z,17.00
2022-08-07T07:40:58.845Z,17.75
2022-08-07T07:44:14.218Z,17.75
2022-08-07T07:46:40.216Z,18.75
2022-08-07T07:50:32.720Z,19.00
2022-08-07T07:52:03.410Z,16.50
2022-08-07T07:54:31.993Z,18.50
2022-08-07T07:57:03.092Z,17.50
2022-08-07T07:59:52.592Z,18.75
2022-08-07T08:02:33.691Z,19.75
2022-08-07T08:05:04.268Z,20.25
2022-08-07T08:07:35.982Z,13.00
2022-08-07T08:10:14.843Z,13.75
2022-08-07T08:13:00.583Z,17.25
2022-08-07T08:15:57.545Z,20.75
2022-08-07T08:18:24.718Z,19.00
2022-08-07T08:20:54.049Z,17.00
2022-08-07T08:23:40.530Z,21.00
2022-08-07T08:26:26.640Z,20.00
2022-08-07T08:28:57.253Z,15.25
2022-08-07T08:31:58.428Z,20.00
2022-08-07T08:34:27.263Z,20.00
2022-08-07T08:36:58.422Z,19.00
2022-08-07T08:39:38.909Z,16.25
2022-08-07T08:42:10.938Z,17.50
2022-08-07T08:44:45.823Z,16.50
2022-08-07T08:47:25.245Z,18.50
2022-08-07T08:50:02.487Z,16.25
2022-08-07T08:52:35.961Z,20.00
2022-08-07T08:55:21.119Z,18.25
2022-08-07T08:58:08.582Z,19.75
2022-08-07T09:00:43.422Z,13.00
2022-08-07T09:03:22.650Z,18.25
2022-08-07T09:06:12.863Z,17.75
2022-08-07T09:08:55.669Z,17.75
2022-08-07T09:11:50.515Z,17.50
2022-08-07T09:14:28.665Z,17.50
2022-08-07T09:17:01.332Z,16.75
2022-08-07T09:19:51.355Z,15.75
2022-08-07T09:24:30.510Z,16.75
2022-08-07T09:25:24.417Z,17.75
2022-08-07T09:28:00.459Z,13.50
2022-08-07T09:30:36.831Z,14.25
2022-08-07T09:33:16.501Z,15.25
2022-08-07T09:36:02.815Z,15.75
2022-08-07T09:38:38.648Z,14.00
2022-08-07T09:41:17.849Z,14.25
2022-08-07T09:44:05.660Z,14.00
2022-08-07T09:47:51.091Z,17.00
2022-08-07T09:50:01.835Z,12.75
2022-08-07T09:52:38.400Z,14.25
2022-08-07T09:55:29.055Z,14.00
2022-08-07T09:58:11.863Z,16.75
2022-08-07T10:00:52.388Z,15.50
2022-08-07T10:04:06.048Z,15.75
2022-08-07T10:06:41.341Z,12.50
2022-08-07T10:09:59.239Z,13.25
2022-08-07T10:12:41.079Z,13.00
2022-08-07T10:15:37.882Z,11.50
2022-08-07T10:18:26.353Z,14.25
2022-08-07T10:21:03.793Z,13.50
2022-08-07T10:24:04.787Z,13.50
2022-08-07T10:26:51.595Z,15.75
2022-08-07T10:29:45.995Z,14.75
2022-08-07T10:32:36.902Z,14.75
2022-08-07T10:35:16.646Z,15.75
2022-08-07T10:38:09.509Z,15.00
2022-08-07T10:40:46.570Z,17.50
2022-08-07T10:43:19.330Z,16.25
2022-08-07T10:45:59.860Z,18.75
2022-08-07T10:48:36.264Z,11.00
2022-08-07T10:51:07.677Z,11.50
2022-08-07T10:53:48.856Z,11.50
2022-08-07T10:56:31.565Z,13.75
2022-08-07T10:59:21.168Z,8.00
2022-08-07T11:02:05.151Z,13.00
2022-08-07T11:04:47.382Z,12.50
2022-08-07T11:07:56.267Z,12.50
2022-08-07T11:10:17.619Z,12.00
2022-08-07T11:13:01.783Z,14.00
2022-08-07T11:15:35.562Z,14.00
2022-08-07T11:18:06.508Z,11.00
2022-08-07T11:20:42.974Z,14.50
2022-08-07T11:23:20.724Z,16.00
2022-08-07T11:26:06.449Z,12.00
2022-08-07T11:28:37.268Z,18.25
2022-08-07T11:31:11.410Z,13.75
2022-08-07T11:33:53.831Z,12.25
2022-08-07T11:36:35.852Z,15.00
2022-08-07T11:39:07.489Z,14.25
2022-08-07T11:42:01.667Z,14.00
2022-08-07T11:44:34.373Z,13.50
2022-08-07T11:47:10.972Z,16.00
2022-08-07T11:50:30.960Z,12.50
2022-08-07T11:52:53.438Z,19.00
2022-08-07T11:56:24.842Z,9.00
2022-08-07T11:58:18.520Z,20.00
2022-08-07T12:01:00.249Z,17.25
2022-08-07T12:03:46.760Z,21.75
2022-08-07T12:06:37.171Z,23.00
2022-08-07T12:09:16.826Z,24.25
2022-08-07T12:12:10.314Z,33.75
2022-08-07T12:14:51.433Z,27.50
2022-08-07T12:17:26.474Z,30.25
2022-08-07T12:20:18.540Z,33.50
2022-08-07T12:22:58.859Z,31.50
2022-08-07T12:26:03.132Z,25.00
2022-08-07T12:28:45.058Z,12.00
2022-08-07T12:31:17.246Z,19.25
2022-08-07T12:34:01.090Z,20.75
2022-08-07T12:36:32.902Z,24.50
2022-08-07T12:39:41.234Z,19.00
2022-08-07T12:41:53.300Z,22.00
2022-08-07T12:44:22.922Z,11.25
2022-08-07T12:46:58.955Z,22.75
2022-08-07T12:49:39.845Z,15.75
2022-08-07T12:52:23.358Z,11.75
2022-08-07T12:55:03.527Z,18.00
2022-08-07T12:58:00.273Z,16.75
2022-08-07T13:00:32.997Z,14.00
2022-08-07T13:03:26.919Z,14.00
2022-08-07T13:06:27.325Z,14.00
2022-08-07T13:09:01.358Z,13.75
2022-08-07T13:12:02.005Z,13.00
2022-08-07T13:14:33.587Z,9.50
2022-08-07T13:17:05.877Z,11.75
2022-08-07T13:19:50.968Z,15.00
2022-08-07T13:22:31.299Z,11.50
2022-08-07T13:25:02.755Z,8.50
2022-08-07T13:28:13.287Z,14.00
2022-08-07T13:30:39.847Z,14.50
2022-08-07T13:33:46.031Z,16.25
2022-08-07T13:36:05.738Z,13.50
2022-08-07T13:38:39.315Z,14.25
2022-08-07T13:41:17.852Z,13.50
2022-08-07T13:43:52.763Z,10.00
2022-08-07T13:46:32.761Z,10.00
2022-08-07T13:49:04.304Z,11.75
2022-08-07T13:52:05.535Z,13.75
2022-08-07T13:54:30.543Z,12.50
2022-08-07T13:57:08.616Z,10.25
2022-08-07T13:59:40.691Z,12.50
2022-08-07T14:02:19.723Z,6.50
2022-08-07T14:05:00.661Z,8.00
2022-08-07T14:07:31.606Z,12.25
2022-08-07T14:10:17.549Z,6.25
2022-08-07T14:12:55.807Z,7.75
2022-08-07T14:15:35.267Z,5.00
2022-08-07T14:18:23.416Z,7.50
2022-08-07T14:20:54.989Z,10.00
2022-08-07T14:23:58.810Z,6.00
2022-08-07T14:26:28.006Z,7.00
2022-08-07T14:29:08.754Z,11.50
2022-08-07T14:31:53.491Z,11.00
2022-08-07T14:34:29.971Z,7.00
2022-08-07T14:37:17.668Z,8.50
2022-08-07T14:40:16.512Z,13.50
2022-08-07T14:43:55.168Z,16.50
2022-08-07T14:45:47.101Z,15.75
2022-08-07T14:48:19.713Z,13.50
2022-08-07T14:50:50.955Z,13.00
2022-08-07T14:54:05.511Z,13.25
2022-08-07T14:56:13.069Z,12.75
2022-08-07T14:58:44.429Z,11.50
2022-08-07T15:01:22.043Z,13.50
2022-08-07T15:03:53.094Z,13.25
2022-08-07T15:06:25.203Z,10.00
2022-08-07T15:08:54.881Z,11.00
2022-08-07T15:11:53.514Z,12.25
2022-08-07T15:14:17.737Z,10.50
2022-08-07T15:16:55.251Z,8.00
2022-08-07T15:20:23.626Z,10.00
2022-08-07T15:22:22.118Z,9.50
2022-08-07T15:25:13.904Z,9.75
2022-08-07T15:28:33.071Z,11.50
2022-08-07T15:30:36.515Z,11.25
2022-08-07T15:33:33.433Z,11.75
2022-08-07T15:36:05.751Z,10.00
2022-08-07T15:38:51.243Z,11.75
2022-08-07T15:42:45.245Z,11.75
2022-08-07T15:44:15.459Z,13.50
2022-08-07T15:46:51.946Z,11.75
2022-08-07T15:50:04.377Z,16.00
2022-08-07T15:52:20.389Z,15.00
2022-08-07T15:54:49.666Z,14.50
2022-08-07T15:57:27.828Z,15.75
2022-08-07T16:00:08.748Z,14.00
2022-08-07T16:02:58.857Z,15.50
2022-08-07T16:05:31.345Z,14.50
2022-08-07T16:08:30.944Z,18.75
2022-08-07T16:10:56.409Z,12.50
2022-08-07T16:13:57.873Z,16.25
2022-08-07T16:16:49.869Z,13.25
2022-08-07T16:19:42.020Z,20.50
2022-08-07T16:22:36.794Z,21.50
2022-08-07T16:25:23.266Z,19.75
2022-08-07T16:27:59.496Z,22.25
2022-08-07T16:30:32.669Z,23.00
2022-08-07T16:34:06.224Z,22.50
2022-08-07T16:36:05.961Z,19.00
2022-08-07T16:38:59.972Z,22.50
2022-08-07T16:41:54.006Z,23.00
2022-08-07T16:45:04.127Z,23.00
2022-08-07T16:47:51.462Z,23.25
2022-08-07T16:50:37.047Z,20.50
2022-08-07T16:54:01.738Z,18.50
2022-08-07T16:56:15.150Z,17.75
2022-08-07T16:59:10.949Z,18.75
2022-08-07T17:01:49.658Z,12.75
2022-08-07T17:04:24.990Z,21.25
2022-08-07T17:07:03.280Z,17.25
2022-08-07T17:10:07.195Z,16.00
2022-08-07T17:12:45.271Z,22.75
2022-08-07T17:15:20.158Z,16.50
2022-08-07T17:17:54.559Z,17.75
2022-08-07T17:20:32.711Z,20.75
2022-08-07T17:23:08.547Z,17.00
2022-08-07T17:25:52.169Z,18.25
2022-08-07T17:28:31.272Z,22.00
2022-08-07T17:31:15.746Z,19.50
2022-08-07T17:34:15.188Z,23.25
2022-08-07T17:36:57.911Z,24.50
2022-08-07T17:39:58.850Z,26.00
2022-08-07T17:42:32.763Z,21.25
2022-08-07T17:45:15.132Z,17.50
2022-08-07T17:47:53.864Z,22.25
2022-08-07T17:50:30.590Z,24.25
2022-08-07T17:53:05.871Z,20.50
2022-08-07T17:56:01.305Z,18.00
2022-08-07T17:58:34.319Z,26.00
2022-08-07T18:01:20.797Z,16.00
2022-08-07T18:04:07.540Z,21.25
2022-08-07T18:06:39.247Z,19.00
2022-08-07T18:09:16.686Z,19.00
2022-08-07T18:12:16.539Z,18.25
2022-08-07T18:14:45.087Z,22.00
2022-08-07T18:18:39.729Z,28.50
2022-08-07T18:21:06.657Z,22.75
2022-08-07T18:23:41.921Z,21.00
2022-08-07T18:26:05.675Z,19.00
2022-08-07T18:28:58.562Z,20.50
2022-08-07T18:31:38.897Z,17.50
2022-08-07T18:34:34.838Z,21.75
2022-08-07T18:37:09.974Z,17.25
2022-08-07T18:40:08.131Z,18.75
2022-08-07T18:42:45.902Z,22.00
2022-08-07T18:45:43.048Z,22.75
2022-08-07T18:50:05.683Z,20.50
2022-08-07T18:51:07.329Z,21.00
2022-08-07T18:53:54.162Z,19.25
2022-08-07T18:56:34.023Z,21.75
2022-08-07T18:59:06.959Z,22.00
2022-08-07T19:02:31.780Z,16.25
2022-08-07T19:04:54.540Z,20.00
2022-08-07T19:07:34.520Z,20.50
2022-08-07T19:10:12.180Z,22.00
2022-08-07T19:12:57.978Z,20.00
2022-08-07T19:16:04.841Z,18.00
2022-08-07T19:18:35.006Z,24.75
2022-08-07T19:21:14.554Z,19.00
2022-08-07T19:24:01.484Z,21.50
2022-08-07T19:27:01.712Z,20.33
2022-08-07T19:31:00.065Z,21.25
2022-08-07T19:32:26.466Z,17.00
2022-08-07T19:35:01.597Z,18.25
2022-08-07T19:37:57.063Z,14.00
2022-08-07T19:40:31.324Z,18.75
2022-08-07T19:43:02.917Z,25.75
2022-08-07T19:46:06.266Z,17.00
2022-08-07T19:48:26.236Z,21.00
2022-08-07T19:50:57.597Z,26.67
2022-08-07T19:54:33.035Z,36.00
2022-08-07T19:57:51.849Z,27.25
2022-08-07T19:59:12.825Z,31.50
2022-08-07T20:01:52.787Z,22.75
2022-08-07T20:04:31.268Z,21.50
2022-08-07T20:07:09.130Z,22.75
2022-08-07T20:10:36.245Z,18.50
2022-08-07T20:12:34.716Z,24.50
2022-08-07T20:15:09.713Z,25.00
2022-08-07T20:17:45.949Z,25.25
2022-08-07T20:20:31.103Z,22.75
2022-08-07T20:23:23.191Z,23.25
2022-08-07T20:25:53.369Z,22.75
2022-08-07T20:28:29.942Z,18.75
2022-08-07T20:30:58.731Z,18.50
2022-08-07T20:33:37.488Z,22.50
2022-08-07T20:36:07.902Z,19.75
2022-08-07T20:39:00.111Z,23.25
2022-08-07T20:41:27.856Z,23.25
2022-08-07T20:44:04.609Z,20.50
2022-08-07T20:46:44.139Z,14.75
2022-08-07T20:50:00.583Z,20.50
2022-08-07T20:52:07.844Z,15.75
2022-08-07T20:54:53.028Z,20.75
2022-08-07T20:57:23.348Z,17.75
2022-08-07T21:00:08.144Z,18.75
2022-08-07T21:02:57.814Z,17.25
2022-08-07T21:05:54.363Z,20.75
2022-08-07T21:08:32.328Z,20.25
2022-08-07T21:11:10.842Z,18.75
2022-08-07T21:13:57.823Z,17.00
2022-08-07T21:16:34.739Z,25.75
2022-08-07T21:19:07.125Z,18.25
2022-08-07T21:21:57.170Z,17.75
2022-08-07T21:24:29.157Z,24.75
2022-08-07T21:27:02.201Z,19.50
2022-08-07T21:29:40.854Z,22.00
2022-08-07T21:32:46.897Z,23.75
2022-08-07T21:35:16.699Z,23.25
2022-08-07T21:38:05.337Z,22.25
2022-08-07T21:40:38.915Z,23.75
2022-08-07T21:43:12.116Z,26.25
2022-08-07T21:46:10.514Z,25.25
2022-08-07T21:48:42.451Z,25.75
2022-08-07T21:51:25.457Z,27.33
2022-08-07T21:53:54.685Z,25.25
2022-08-07T21:56:36.614Z,20.50
2022-08-07T21:59:22.769Z,23.25
2022-08-07T22:02:11.091Z,31.00
2022-08-07T22:04:52.599Z,30.25
2022-08-07T22:07:48.561Z,22.75
2022-08-07T22:10:13.057Z,25.50
2022-08-07T22:12:45.851Z,24.00
2022-08-07T22:16:43.878Z,34.00
2022-08-07T22:18:05.664Z,21.50
2022-08-07T22:20:43.053Z,27.00
2022-08-07T22:23:21.709Z,26.25
2022-08-07T22:25:58.052Z,31.50
2022-08-07T22:28:32.073Z,32.50
2022-08-07T22:31:04.973Z,29.25
2022-08-07T22:33:52.817Z,30.50
2022-08-07T22:36:27.990Z,15.50
2022-08-07T22:38:58.197Z,24.25
2022-08-07T22:42:03.667Z,33.00
2022-08-07T22:44:21.897Z,26.25
2022-08-07T22:47:06.501Z,22.25
2022-08-07T22:49:54.343Z,24.25
2022-08-07T22:52:53.041Z,21.50
2022-08-07T22:55:39.408Z,25.50
2022-08-07T22:58:29.133Z,25.00
2022-08-07T23:01:06.559Z,24.00
2022-08-07T23:03:58.862Z,21.00
2022-08-07T23:06:43.642Z,23.75
2022-08-07T23:10:05.219Z,22.00
2022-08-07T23:12:34.027Z,23.25
2022-08-07T23:15:12.500Z,25.00
2022-08-07T23:18:09.356Z,22.75
2022-08-07T23:20:55.032Z,29.00
2022-08-07T23:24:05.318Z,23.75
2022-08-07T23:26:25.317Z,26.00
2022-08-07T23:29:42.763Z,23.00
2022-08-07T23:34:20.021Z,21.75
2022-08-07T23:35:02.774Z,28.00
2022-08-07T23:38:01.620Z,26.00
2022-08-07T23:40:36.304Z,23.25
2022-08-07T23:43:37.722Z,21.75
2022-08-07T23:46:23.784Z,23.50
2022-08-07T23:49:15.149Z,26.00
2022-08-07T23:53:01.917Z,20.50
2022-08-07T23:54:46.223Z,15.50
2022-08-07T23:57:18.779Z,19.50
